createdAt,value
2018-09-10T00:00:13.584Z,3.40
2018-09-10T00:02:41.532Z,3.63
2018-09-10T00:05:10.388Z,4.13
2018-09-10T00:07:38.461Z,3.60
2018-09-10T00:10:06.411Z,3.43
2018-09-10T00:12:34.406Z,3.10
2018-09-10T00:15:02.485Z,9.47
2018-09-10T00:17:30.567Z,4.30
2018-09-10T00:19:58.868Z,3.60
2018-09-10T00:22:26.961Z,3.07
2018-09-10T00:24:54.917Z,3.40
2018-09-10T00:27:22.879Z,3.13
2018-09-10T00:29:51.167Z,3.07
2018-09-10T00:32:19.121Z,3.07
2018-09-10T00:34:47.059Z,3.20
2018-09-10T00:37:15.023Z,3.20
2018-09-10T00:39:42.988Z,3.40
2018-09-10T00:42:11.201Z,3.10
2018-09-10T00:44:39.180Z,3.20
2018-09-10T00:47:07.117Z,3.27
2018-09-10T00:49:35.091Z,3.43
2018-09-10T00:52:03.120Z,3.40
2018-09-10T00:54:31.124Z,3.27
2018-09-10T00:56:59.096Z,3.00
2018-09-10T00:59:27.064Z,3.00
2018-09-10T01:01:55.347Z,2.80
2018-09-10T01:04:23.327Z,3.30
2018-09-10T01:06:51.433Z,3.20
2018-09-10T01:09:19.388Z,3.50
2018-09-10T01:11:47.307Z,3.47
2018-09-10T01:14:15.315Z,3.20
2018-09-10T01:16:43.247Z,3.43
2018-09-10T01:19:11.763Z,3.60
2018-09-10T01:21:39.743Z,2.80
2018-09-10T01:24:07.708Z,3.73
2018-09-10T01:26:35.647Z,5.07
2018-09-10T01:29:03.645Z,4.00
2018-09-10T01:31:31.603Z,4.33
2018-09-10T01:34:04.955Z,4.20
2018-09-10T01:36:32.896Z,3.10
2018-09-10T01:39:01.520Z,3.33
2018-09-10T01:41:29.547Z,3.30
2018-09-10T01:43:57.588Z,3.43
2018-09-10T01:46:25.512Z,3.37
2018-09-10T01:48:53.490Z,3.00
2018-09-10T01:51:21.444Z,2.87
2018-09-10T01:53:49.388Z,3.07
2018-09-10T01:56:17.429Z,3.50
2018-09-10T01:58:45.349Z,2.63
2018-09-10T02:01:13.304Z,3.00
2018-09-10T02:03:41.228Z,3.00
2018-09-10T02:06:09.293Z,3.07
2018-09-10T02:08:37.244Z,2.77
2018-09-10T02:11:05.407Z,2.80
2018-09-10T02:13:33.464Z,3.03
2018-09-10T02:16:01.449Z,2.90
2018-09-10T02:18:29.397Z,2.93
2018-09-10T02:20:57.431Z,2.87
2018-09-10T02:23:25.645Z,2.80
2018-09-10T02:25:53.689Z,2.90
2018-09-10T02:28:21.639Z,2.90
2018-09-10T02:30:49.644Z,2.90
2018-09-10T02:33:17.819Z,2.77
2018-09-10T02:35:45.751Z,3.27
2018-09-10T02:38:13.796Z,3.30
2018-09-10T02:40:41.859Z,2.80
2018-09-10T02:43:09.880Z,3.13
2018-09-10T02:45:37.848Z,3.07
2018-09-10T02:48:05.804Z,3.20
2018-09-10T02:50:33.747Z,3.30
2018-09-10T02:53:01.796Z,2.97
2018-09-10T02:55:30.288Z,3.20
2018-09-10T02:57:58.372Z,4.07
2018-09-10T03:00:26.334Z,3.40
2018-09-10T03:02:54.746Z,4.47
2018-09-10T03:05:22.661Z,4.00
2018-09-10T03:07:50.628Z,3.67
2018-09-10T03:10:18.576Z,3.20
2018-09-10T03:12:46.640Z,3.90
2018-09-10T03:15:14.620Z,3.43
2018-09-10T03:17:42.815Z,3.60
2018-09-10T03:20:10.837Z,3.17
2018-09-10T03:22:38.883Z,3.10
2018-09-10T03:25:06.892Z,3.60
2018-09-10T03:27:34.852Z,2.80
2018-09-10T03:30:02.831Z,3.47
2018-09-10T03:32:30.828Z,3.13
2018-09-10T03:34:58.840Z,3.37
2018-09-10T03:37:26.978Z,2.93
2018-09-10T03:39:54.912Z,3.30
2018-09-10T03:42:22.839Z,3.30
2018-09-10T03:44:50.816Z,3.20
2018-09-10T03:47:19.048Z,3.27
2018-09-10T03:49:46.971Z,3.03
2018-09-10T03:52:14.918Z,3.53
2018-09-10T03:54:42.931Z,3.07
2018-09-10T03:57:10.896Z,3.13
2018-09-10T03:59:38.848Z,3.07
2018-09-10T04:02:06.789Z,3.07
2018-09-10T04:04:34.785Z,2.97
2018-09-10T04:07:02.839Z,3.27
2018-09-10T04:09:30.843Z,3.23
2018-09-10T04:11:58.895Z,3.07
2018-09-10T04:14:26.868Z,2.87
2018-09-10T04:16:55.082Z,3.20
2018-09-10T04:19:23.015Z,3.20
2018-09-10T04:21:51.139Z,2.50
2018-09-10T04:24:19.096Z,3.03
2018-09-10T04:26:47.078Z,3.20
2018-09-10T04:29:15.041Z,3.00
2018-09-10T04:31:42.979Z,2.90
2018-09-10T04:34:11.007Z,2.90
2018-09-10T04:36:39.033Z,3.20
2018-09-10T04:39:07.933Z,3.07
2018-09-10T04:41:38.869Z,3.40
2018-09-10T04:44:06.855Z,3.10
2018-09-10T04:46:35.165Z,3.40
2018-09-10T04:49:03.117Z,2.90
2018-09-10T04:51:31.330Z,3.23
2018-09-10T04:53:59.279Z,3.20
2018-09-10T04:56:27.265Z,3.10
2018-09-10T04:58:55.235Z,3.13
2018-09-10T05:01:23.203Z,3.17
2018-09-10T05:03:51.320Z,2.77
2018-09-10T05:06:19.614Z,3.13
2018-09-10T05:08:47.720Z,2.63
2018-09-10T05:11:15.711Z,3.10
2018-09-10T05:13:43.857Z,3.63
2018-09-10T05:16:12.875Z,2.97
2018-09-10T05:18:41.036Z,3.00
2018-09-10T05:21:09.013Z,3.50
2018-09-10T05:23:36.994Z,3.33
2018-09-10T05:26:04.908Z,3.57
2018-09-10T05:28:33.105Z,3.10
2018-09-10T05:31:01.081Z,3.50
2018-09-10T05:33:29.271Z,3.67
2018-09-10T05:35:57.320Z,3.77
2018-09-10T05:38:25.332Z,3.20
2018-09-10T05:40:53.682Z,3.73
2018-09-10T05:43:21.661Z,3.50
2018-09-10T05:45:49.665Z,4.17
2018-09-10T05:48:17.664Z,3.67
2018-09-10T05:50:45.869Z,3.67
2018-09-10T05:53:13.929Z,4.00
2018-09-10T05:55:41.877Z,4.03
2018-09-10T05:58:09.884Z,3.13
2018-09-10T06:00:37.808Z,4.40
2018-09-10T06:03:05.844Z,3.37
2018-09-10T06:05:33.765Z,3.00
2018-09-10T06:08:01.819Z,3.37
2018-09-10T06:10:29.815Z,4.00
2018-09-10T06:12:57.796Z,3.30
2018-09-10T06:15:25.746Z,3.20
2018-09-10T06:17:53.716Z,3.40
2018-09-10T06:20:21.736Z,3.97
2018-09-10T06:22:49.907Z,3.70
2018-09-10T06:25:17.978Z,3.43
2018-09-10T06:27:46.456Z,3.22
2018-09-10T06:30:14.507Z,3.50
2018-09-10T06:32:42.532Z,3.57
2018-09-10T06:35:10.525Z,3.60
2018-09-10T06:37:38.932Z,5.63
2018-09-10T06:40:06.865Z,4.37
2018-09-10T06:42:35.025Z,3.90
2018-09-10T06:45:03.129Z,3.70
2018-09-10T06:47:31.263Z,4.00
2018-09-10T06:49:59.316Z,3.77
2018-09-10T06:52:27.330Z,4.03
2018-09-10T06:54:55.306Z,3.40
2018-09-10T06:57:23.582Z,3.17
2018-09-10T06:59:51.751Z,3.90
2018-09-10T07:02:19.680Z,3.90
2018-09-10T07:04:47.743Z,3.30
2018-09-10T07:07:15.700Z,4.13
2018-09-10T07:09:43.719Z,3.23
2018-09-10T07:12:11.692Z,3.30
2018-09-10T07:14:39.769Z,4.00
2018-09-10T07:17:07.727Z,3.30
2018-09-10T07:19:35.712Z,3.30
2018-09-10T07:22:03.678Z,3.10
2018-09-10T07:24:31.670Z,3.30
2018-09-10T07:26:59.691Z,3.63
2018-09-10T07:29:27.779Z,3.20
2018-09-10T07:31:55.766Z,3.43
2018-09-10T07:34:23.769Z,3.27
2018-09-10T07:36:51.856Z,3.20
2018-09-10T07:39:19.854Z,3.57
2018-09-10T07:41:47.826Z,3.60
2018-09-10T07:44:15.787Z,5.97
2018-09-10T07:46:43.715Z,5.40
2018-09-10T07:49:11.704Z,5.37
2018-09-10T07:51:39.656Z,5.17
2018-09-10T07:54:07.685Z,4.57
2018-09-10T07:56:35.649Z,4.83
2018-09-10T07:59:03.612Z,3.77
2018-09-10T08:01:31.588Z,2.90
2018-09-10T08:03:59.606Z,2.83
2018-09-10T08:06:27.674Z,2.70
2018-09-10T08:08:55.863Z,2.80
2018-09-10T08:11:23.830Z,2.60
2018-09-10T08:13:52.029Z,2.80
2018-09-10T08:16:20.032Z,2.80
2018-09-10T08:18:47.956Z,3.20
2018-09-10T08:21:15.939Z,3.20
2018-09-10T08:23:43.920Z,2.83
2018-09-10T08:26:11.866Z,3.10
2018-09-10T08:28:39.926Z,2.77
2018-09-10T08:31:07.885Z,2.40
2018-09-10T08:33:35.842Z,3.40
2018-09-10T08:36:03.829Z,3.00
2018-09-10T08:38:31.867Z,2.90
2018-09-10T08:40:59.862Z,2.83
2018-09-10T08:43:27.866Z,3.07
2018-09-10T08:45:55.846Z,2.70
2018-09-10T08:48:23.845Z,3.40
2018-09-10T08:50:51.777Z,3.63
2018-09-10T08:53:20.047Z,4.03
2018-09-10T08:55:48.735Z,5.78
2018-09-10T08:58:16.581Z,4.20
2018-09-10T09:00:44.588Z,3.90
2018-09-10T09:03:12.675Z,4.03
2018-09-10T09:05:40.631Z,3.93
2018-09-10T09:08:08.806Z,3.73
2018-09-10T09:10:36.776Z,4.27
2018-09-10T09:13:04.822Z,4.13
2018-09-10T09:15:32.808Z,3.80
2018-09-10T09:18:00.798Z,3.97
2018-09-10T09:20:28.837Z,4.27
2018-09-10T09:22:56.832Z,4.10
2018-09-10T09:25:24.978Z,3.80
2018-09-10T09:27:52.947Z,4.00
2018-09-10T09:30:20.975Z,3.63
2018-09-10T09:32:48.891Z,3.60
2018-09-10T09:35:16.882Z,3.83
2018-09-10T09:37:50.258Z,3.50
2018-09-10T09:40:24.592Z,3.65
2018-09-10T09:42:58.098Z,3.33
2018-09-10T09:45:31.596Z,3.47
2018-09-10T09:47:59.541Z,3.70
2018-09-10T09:50:27.585Z,4.13
2018-09-10T09:52:55.555Z,4.13
2018-09-10T09:55:23.520Z,4.23
2018-09-10T09:57:51.520Z,4.47
2018-09-10T10:00:25.058Z,4.70
2018-09-10T10:03:01.229Z,4.90
2018-09-10T10:05:29.281Z,5.00
2018-09-10T10:07:57.418Z,5.53
2018-09-10T10:10:25.486Z,6.17
2018-09-10T10:12:53.453Z,6.60
2018-09-10T10:15:21.607Z,6.50
2018-09-10T10:17:49.566Z,6.43
2018-09-10T10:20:17.565Z,5.57
2018-09-10T10:22:45.754Z,6.27
2018-09-10T10:25:13.706Z,5.60
2018-09-10T10:27:41.921Z,5.87
2018-09-10T10:30:09.861Z,5.10
2018-09-10T10:32:37.800Z,5.17
2018-09-10T10:35:06.096Z,5.50
2018-09-10T10:37:34.183Z,5.30
2018-09-10T10:40:02.174Z,5.33
2018-09-10T10:42:30.116Z,4.90
2018-09-10T10:44:58.104Z,5.10
2018-09-10T10:47:26.599Z,4.27
2018-09-10T10:49:54.721Z,4.43
2018-09-10T10:52:22.760Z,4.80
2018-09-10T10:54:50.762Z,4.23
2018-09-10T10:57:18.732Z,4.67
2018-09-10T10:59:46.912Z,4.50
2018-09-10T11:02:14.925Z,5.17
2018-09-10T11:04:42.927Z,4.90
2018-09-10T11:07:10.915Z,5.97
2018-09-10T11:09:38.932Z,5.00
2018-09-10T11:12:06.892Z,5.03
2018-09-10T11:14:34.898Z,5.10
2018-09-10T11:17:02.956Z,5.00
2018-09-10T11:19:30.973Z,5.40
2018-09-10T11:21:59.052Z,5.00
2018-09-10T11:24:27.114Z,5.10
2018-09-10T11:26:55.097Z,5.40
2018-09-10T11:29:23.101Z,5.17
2018-09-10T11:31:51.099Z,5.03
2018-09-10T11:34:19.101Z,5.10
2018-09-10T11:36:47.180Z,4.90
2018-09-10T11:39:15.167Z,5.27
2018-09-10T11:41:43.311Z,4.93
2018-09-10T11:44:11.252Z,5.73
2018-09-10T11:46:39.306Z,5.67
2018-09-10T11:49:07.359Z,5.30
2018-09-10T11:51:35.288Z,4.90
2018-09-10T11:54:03.351Z,4.83
2018-09-10T11:56:31.409Z,5.07
2018-09-10T11:58:59.417Z,5.63
2018-09-10T12:01:27.689Z,5.00
2018-09-10T12:03:55.741Z,5.40
2018-09-10T12:06:23.736Z,5.30
2018-09-10T12:08:51.708Z,6.07
2018-09-10T12:11:19.696Z,5.53
2018-09-10T12:13:47.665Z,5.40
2018-09-10T12:16:15.623Z,4.97
2018-09-10T12:18:43.573Z,5.50
2018-09-10T12:21:11.540Z,5.13
2018-09-10T12:23:39.592Z,5.40
2018-09-10T12:26:07.531Z,6.10
2018-09-10T12:28:35.658Z,5.47
2018-09-10T12:31:03.636Z,4.60
2018-09-10T12:33:31.723Z,5.47
2018-09-10T12:35:59.711Z,5.07
2018-09-10T12:38:27.789Z,5.17
2018-09-10T12:40:55.793Z,4.90
2018-09-10T12:43:24.064Z,4.70
2018-09-10T12:45:52.043Z,5.20
2018-09-10T12:48:20.044Z,5.17
2018-09-10T12:50:47.992Z,5.40
2018-09-10T12:53:16.073Z,5.13
2018-09-10T12:55:44.052Z,4.90
2018-09-10T12:58:12.060Z,4.40
2018-09-10T13:00:40.026Z,4.90
2018-09-10T13:03:08.019Z,5.40
2018-09-10T13:05:35.986Z,4.40
2018-09-10T13:08:03.970Z,5.00
2018-09-10T13:10:31.964Z,4.57
2018-09-10T13:12:59.924Z,5.27
2018-09-10T13:15:27.912Z,4.57
2018-09-10T13:17:55.954Z,4.83
2018-09-10T13:20:23.962Z,5.40
2018-09-10T13:22:52.412Z,4.37
2018-09-10T13:25:20.458Z,4.43
2018-09-10T13:27:48.529Z,4.40
2018-09-10T13:30:16.493Z,4.70
2018-09-10T13:32:44.598Z,5.00
2018-09-10T13:35:12.568Z,4.73
2018-09-10T13:37:40.538Z,3.90
2018-09-10T13:40:08.531Z,4.20
2018-09-10T13:42:36.563Z,3.60
2018-09-10T13:45:04.615Z,3.47
2018-09-10T13:47:32.593Z,2.90
2018-09-10T13:50:00.584Z,3.10
2018-09-10T13:52:28.658Z,3.30
2018-09-10T13:54:56.655Z,3.10
2018-09-10T13:57:24.664Z,3.20
2018-09-10T13:59:52.946Z,3.00
2018-09-10T14:02:21.089Z,3.00
2018-09-10T14:04:49.058Z,2.93
2018-09-10T14:07:17.174Z,3.53
2018-09-10T14:09:45.139Z,3.07
2018-09-10T14:12:13.102Z,3.30
2018-09-10T14:14:41.063Z,3.03
2018-09-10T14:17:09.071Z,2.90
2018-09-10T14:19:37.006Z,3.03
2018-09-10T14:22:04.959Z,3.30
2018-09-10T14:24:33.032Z,2.63
2018-09-10T14:27:01.005Z,3.77
2018-09-10T14:29:29.031Z,2.90
2018-09-10T14:31:56.992Z,3.27
2018-09-10T14:34:24.947Z,3.00
2018-09-10T14:36:53.572Z,3.10
2018-09-10T14:39:21.572Z,2.70
2018-09-10T14:41:49.536Z,2.67
2018-09-10T14:44:17.491Z,3.10
2018-09-10T14:46:45.574Z,2.77
2018-09-10T14:49:13.651Z,2.77
2018-09-10T14:51:41.617Z,2.13
2018-09-10T14:54:09.606Z,2.40
2018-09-10T14:56:37.575Z,2.37
2018-09-10T14:59:05.595Z,2.87
2018-09-10T15:01:33.591Z,3.70
2018-09-10T15:04:01.976Z,2.70
2018-09-10T15:06:29.996Z,2.73
2018-09-10T15:08:57.985Z,2.13
2018-09-10T15:11:26.006Z,2.30
2018-09-10T15:13:54.150Z,1.70
2018-09-10T15:16:22.166Z,2.17
2018-09-10T15:18:50.220Z,2.10
2018-09-10T15:21:18.163Z,2.10
2018-09-10T15:23:46.140Z,2.53
2018-09-10T15:26:14.136Z,2.53
2018-09-10T15:28:42.032Z,2.37
2018-09-10T15:31:10.060Z,2.00
2018-09-10T15:33:38.037Z,2.57
2018-09-10T15:36:06.054Z,2.30
2018-09-10T15:38:34.046Z,2.27
2018-09-10T15:41:02.071Z,2.13
2018-09-10T15:43:30.170Z,2.30
2018-09-10T15:45:58.142Z,2.23
2018-09-10T15:48:26.130Z,2.10
2018-09-10T15:50:54.948Z,2.95
2018-09-10T15:53:22.926Z,2.50
2018-09-10T15:55:50.887Z,2.33
2018-09-10T15:58:18.878Z,2.10
2018-09-10T16:00:46.974Z,2.00
2018-09-10T16:03:15.811Z,2.40
2018-09-10T16:05:43.775Z,2.20
2018-09-10T16:08:11.725Z,2.30
2018-09-10T16:10:39.653Z,2.40
2018-09-10T16:13:07.661Z,2.23
2018-09-10T16:15:35.636Z,2.50
2018-09-10T16:18:03.585Z,2.37
2018-09-10T16:20:31.537Z,2.20
2018-09-10T16:22:59.580Z,2.37
2018-09-10T16:25:27.680Z,2.10
2018-09-10T16:27:55.641Z,2.67
2018-09-10T16:30:23.573Z,2.60
2018-09-10T16:32:51.655Z,3.17
2018-09-10T16:35:19.649Z,2.57
2018-09-10T16:37:47.595Z,2.53
2018-09-10T16:40:15.647Z,2.60
2018-09-10T16:42:43.612Z,2.93
2018-09-10T16:45:11.559Z,2.57
2018-09-10T16:47:39.605Z,2.63
2018-09-10T16:50:09.359Z,3.20
2018-09-10T16:52:37.729Z,2.77
2018-09-10T16:55:06.929Z,3.03
2018-09-10T16:57:35.269Z,2.73
2018-09-10T17:00:03.293Z,2.40
2018-09-10T17:02:32.150Z,3.33
2018-09-10T17:05:00.416Z,2.80
2018-09-10T17:07:28.930Z,2.63
2018-09-10T17:09:57.300Z,2.90
2018-09-10T17:12:26.232Z,3.90
2018-09-10T17:14:54.263Z,3.50
2018-09-10T17:17:22.141Z,3.30
2018-09-10T17:19:50.214Z,3.03
2018-09-10T17:22:18.185Z,3.20
2018-09-10T17:24:46.332Z,3.00
2018-09-10T17:27:14.430Z,3.20
2018-09-10T17:29:42.636Z,3.03
2018-09-10T17:32:10.995Z,2.90
2018-09-10T17:34:39.513Z,3.00
2018-09-10T17:37:07.626Z,3.20
2018-09-10T17:39:36.254Z,3.47
2018-09-10T17:42:04.613Z,3.37
2018-09-10T17:44:32.617Z,3.20
2018-09-10T17:47:01.888Z,3.07
2018-09-10T17:49:30.835Z,3.10
2018-09-10T17:52:01.853Z,3.40
2018-09-10T17:54:30.092Z,3.00
2018-09-10T17:56:58.296Z,3.50
2018-09-10T17:59:26.345Z,2.90
2018-09-10T18:01:54.940Z,2.75
2018-09-10T18:04:23.036Z,3.20
2018-09-10T18:06:51.002Z,2.80
2018-09-10T18:09:19.004Z,3.07
2018-09-10T18:11:47.046Z,3.40
2018-09-10T18:14:14.996Z,3.50
2018-09-10T18:16:42.957Z,3.70
2018-09-10T18:19:11.020Z,3.17
2018-09-10T18:21:39.103Z,3.00
2018-09-10T18:24:07.093Z,2.90
2018-09-10T18:26:35.045Z,3.57
2018-09-10T18:29:03.024Z,3.07
2018-09-10T18:31:31.034Z,2.90
2018-09-10T18:33:58.985Z,2.90
2018-09-10T18:36:27.184Z,3.70
2018-09-10T18:38:55.148Z,3.23
2018-09-10T18:41:23.104Z,3.20
2018-09-10T18:43:51.112Z,2.90
2018-09-10T18:46:19.142Z,3.47
2018-09-10T18:48:47.292Z,2.97
2018-09-10T18:51:15.379Z,2.97
2018-09-10T18:53:43.302Z,2.70
2018-09-10T18:56:11.296Z,2.67
2018-09-10T18:58:39.309Z,3.27
2018-09-10T19:01:07.473Z,3.20
2018-09-10T19:03:35.276Z,3.40
2018-09-10T19:06:03.239Z,3.10
2018-09-10T19:08:31.271Z,2.60
2018-09-10T19:10:59.268Z,3.10
2018-09-10T19:13:27.270Z,3.20
2018-09-10T19:15:55.238Z,3.40
2018-09-10T19:18:27.547Z,3.07
2018-09-10T19:20:55.760Z,3.33
2018-09-10T19:23:23.690Z,3.70
2018-09-10T19:25:51.641Z,4.27
2018-09-10T19:28:19.584Z,3.60
2018-09-10T19:30:47.803Z,3.20
2018-09-10T19:33:18.277Z,4.10
2018-09-10T19:35:48.558Z,3.17
2018-09-10T19:38:16.543Z,3.40
2018-09-10T19:40:44.569Z,3.33
2018-09-10T19:43:12.590Z,3.60
2018-09-10T19:45:40.584Z,3.43
2018-09-10T19:48:08.979Z,4.10
2018-09-10T19:50:37.559Z,3.10
2018-09-10T19:53:06.265Z,3.17
2018-09-10T19:55:34.372Z,3.80
2018-09-10T19:58:02.427Z,3.57
2018-09-10T20:00:31.579Z,3.03
2018-09-10T20:02:59.801Z,3.30
2018-09-10T20:05:31.627Z,3.50
2018-09-10T20:07:59.629Z,3.03
2018-09-10T20:10:27.817Z,3.53
2018-09-10T20:12:55.778Z,3.10
2018-09-10T20:15:23.783Z,3.23
2018-09-10T20:17:51.703Z,3.77
2018-09-10T20:20:19.692Z,4.00
2018-09-10T20:22:47.661Z,3.50
2018-09-10T20:25:15.592Z,3.97
2018-09-10T20:27:44.299Z,3.63
2018-09-10T20:30:12.348Z,4.13
2018-09-10T20:32:40.655Z,3.95
2018-09-10T20:35:09.035Z,3.60
2018-09-10T20:37:37.097Z,3.50
2018-09-10T20:40:05.662Z,3.50
2018-09-10T20:42:33.624Z,3.60
2018-09-10T20:45:01.671Z,3.30
2018-09-10T20:47:30.030Z,4.40
2018-09-10T20:49:59.192Z,5.37
2018-09-10T20:52:28.564Z,3.57
2018-09-10T20:54:58.714Z,3.70
2018-09-10T20:57:27.952Z,3.70
2018-09-10T20:59:55.941Z,3.97
2018-09-10T21:02:24.186Z,4.23
2018-09-10T21:04:52.131Z,3.97
2018-09-10T21:07:20.077Z,3.87
2018-09-10T21:09:48.124Z,3.50
2018-09-10T21:12:16.116Z,3.93
2018-09-10T21:14:44.347Z,3.20
2018-09-10T21:17:12.443Z,4.80
2018-09-10T21:19:40.978Z,3.60
2018-09-10T21:22:08.963Z,4.00
2018-09-10T21:24:36.931Z,3.70
2018-09-10T21:27:05.541Z,4.43
2018-09-10T21:29:34.208Z,3.40
2018-09-10T21:32:03.239Z,3.73
2018-09-10T21:34:31.883Z,3.80
2018-09-10T21:37:00.080Z,3.20
2018-09-10T21:39:29.049Z,3.13
2018-09-10T21:41:57.063Z,3.30
2018-09-10T21:44:25.075Z,3.20
2018-09-10T21:46:53.095Z,3.27
2018-09-10T21:49:21.144Z,3.00
2018-09-10T21:51:49.136Z,3.23
2018-09-10T21:54:17.213Z,3.03
2018-09-10T21:56:45.264Z,3.47
2018-09-10T21:59:13.260Z,3.77
2018-09-10T22:01:41.393Z,3.10
2018-09-10T22:04:10.094Z,3.40
2018-09-10T22:06:38.337Z,3.87
2018-09-10T22:09:07.514Z,4.00
2018-09-10T22:11:39.700Z,3.70
2018-09-10T22:14:08.412Z,4.37
2018-09-10T22:16:36.449Z,4.28
2018-09-10T22:19:04.533Z,3.90
2018-09-10T22:21:32.544Z,3.35
2018-09-10T22:24:00.760Z,3.27
2018-09-10T22:26:30.312Z,3.37
2018-09-10T22:28:58.424Z,4.07
2018-09-10T22:31:26.396Z,3.43
2018-09-10T22:33:54.401Z,3.27
2018-09-10T22:36:22.439Z,3.67
2018-09-10T22:38:50.523Z,3.83
2018-09-10T22:41:18.491Z,4.27
2018-09-10T22:43:46.593Z,3.70
2018-09-10T22:46:14.510Z,3.90
2018-09-10T22:48:42.493Z,3.67
2018-09-10T22:51:10.424Z,3.60
2018-09-10T22:53:38.449Z,3.17
2018-09-10T22:56:08.867Z,3.20
2018-09-10T22:58:36.976Z,2.77
2018-09-10T23:01:04.934Z,3.50
2018-09-10T23:03:33.000Z,3.30
2018-09-10T23:06:00.955Z,3.60
2018-09-10T23:08:29.007Z,3.10
2018-09-10T23:10:56.922Z,3.67
2018-09-10T23:13:25.001Z,4.00
2018-09-10T23:15:53.079Z,3.10
2018-09-10T23:18:21.059Z,3.57
2018-09-10T23:20:49.175Z,3.57
2018-09-10T23:23:17.211Z,3.60
2018-09-10T23:25:45.218Z,3.60
2018-09-10T23:28:13.171Z,3.40
2018-09-10T23:30:41.136Z,3.63
2018-09-10T23:33:09.096Z,2.80
2018-09-10T23:35:37.043Z,3.53
2018-09-10T23:38:05.031Z,3.50
2018-09-10T23:40:33.015Z,4.07
2018-09-10T23:43:01.099Z,3.40
2018-09-10T23:45:29.068Z,3.43
2018-09-10T23:47:57.161Z,3.30
2018-09-10T23:50:25.132Z,3.23
2018-09-10T23:52:53.084Z,3.40
2018-09-10T23:55:21.096Z,2.93
2018-09-10T23:57:49.173Z,3.20
